sensor_id;sensor_type;location;lat;lon;timestamp;temperature;humidity
9941;DHT22;5009;50.656;7.188;2023-02-08T05:03:11;-2.10;99.90
9941;DHT22;5009;50.656;7.188;2023-02-08T05:05:37;-2.00;99.90
9941;DHT22;5009;50.656;7.188;2023-02-08T05:08:03;-2.00;99.90
9941;DHT22;5009;50.656;7.188;2023-02-08T05:10:28;-2.00;99.90
9941;DHT22;5009;50.656;7.188;2023-02-08T05:12:54;-2.00;99.90
9941;DHT22;5009;50.656;7.188;2023-02-08T05:15:20;-2.00;99.90
9941;DHT22;5009;50.656;7.188;2023-02-08T05:17:45;-2.00;99.90
9941;DHT22;5009;50.656;7.188;2023-02-08T05:20:11;-2.00;99.90
9941;DHT22;5009;50.656;7.188;2023-02-08T05:22:37;-2.00;99.90
9941;DHT22;5009;50.656;7.188;2023-02-08T05:25:03;-2.10;99.90
9941;DHT22;5009;50.656;7.188;2023-02-08T05:27:29;-2.10;99.90
9941;DHT22;5009;50.656;7.188;2023-02-08T05:29:54;-2.10;99.90
9941;DHT22;5009;50.656;7.188;2023-02-08T05:32:20;-2.10;99.90
9941;DHT22;5009;50.656;7.188;2023-02-08T05:34:45;-2.20;99.90
9941;DHT22;5009;50.656;7.188;2023-02-08T05:37:12;-2.20;99.90
9941;DHT22;5009;50.656;7.188;2023-02-08T05:39:38;-2.20;99.90
9941;DHT22;5009;50.656;7.188;2023-02-08T05:42:04;-2.10;99.90
9941;DHT22;5009;50.656;7.188;2023-02-08T05:44:29;-2.10;99.90
9941;DHT22;5009;50.656;7.188;2023-02-08T05:46:55;-2.10;99.90
9941;DHT22;5009;50.656;7.188;2023-02-08T05:49:21;-2.10;99.90
9941;DHT22;5009;50.656;7.188;2023-02-08T05:51:46;-2.10;99.90
9941;DHT22;5009;50.656;7.188;2023-02-08T05:54:12;-2.10;99.90
9941;DHT22;5009;50.656;7.188;2023-02-08T05:56:37;-2.10;99.90
9941;DHT22;5009;50.656;7.188;2023-02-08T05:59:03;-2.10;99.90
9941;DHT22;5009;50.656;7.188;2023-02-08T06:01:28;-2.10;99.90
9941;DHT22;5009;50.656;7.188;2023-02-08T06:03:54;-2.10;99.90
9941;DHT22;5009;50.656;7.188;2023-02-08T06:06:20;-2.10;99.90
9941;DHT22;5009;50.656;7.188;2023-02-08T06:08:46;-2.10;99.90
9941;DHT22;5009;50.656;7.188;2023-02-08T06:11:11;-2.10;99.90
9941;DHT22;5009;50.656;7.188;2023-02-08T06:13:37;-2.20;99.90
9941;DHT22;5009;50.656;7.188;2023-02-08T06:16:04;-2.20;99.90
9941;DHT22;5009;50.656;7.188;2023-02-08T06:18:30;-2.20;99.90
9941;DHT22;5009;50.656;7.188;2023-02-08T06:20:55;-2.20;99.90
9941;DHT22;5009;50.656;7.188;2023-02-08T06:23:22;-2.20;99.90
9941;DHT22;5009;50.656;7.188;2023-02-08T06:25:48;-2.20;99.90
9941;DHT22;5009;50.656;7.188;2023-02-08T06:28:14;-2.20;99.90
9941;DHT22;5009;50.656;7.188;2023-02-08T06:30:40;-2.20;99.90
9941;DHT22;5009;50.656;7.188;2023-02-08T06:33:05;-2.20;99.90
9941;DHT22;5009;50.656;7.188;2023-02-08T06:35:31;-2.20;99.90
9941;DHT22;5009;50.656;7.188;2023-02-08T06:37:57;-2.30;99.90
9941;DHT22;5009;50.656;7.188;2023-02-08T06:40:23;-2.30;99.90
9941;DHT22;5009;50.656;7.188;2023-02-08T06:42:49;-2.30;99.90
9941;DHT22;5009;50.656;7.188;2023-02-08T06:45:15;-2.30;99.90
9941;DHT22;5009;50.656;7.188;2023-02-08T06:47:41;-2.30;99.90
9941;DHT22;5009;50.656;7.188;2023-02-08T06:50:07;-2.30;99.90
9941;DHT22;5009;50.656;7.188;2023-02-08T06:52:33;-2.30;99.90
9941;DHT22;5009;50.656;7.188;2023-02-08T06:54:59;-2.30;99.90
9941;DHT22;5009;50.656;7.188;2023-02-08T06:57:24;-2.30;99.90
9941;DHT22;5009;50.656;7.188;2023-02-08T06:59:50;-2.30;99.90
9941;DHT22;5009;50.656;7.188;2023-02-08T07:02:18;-2.30;99.90
9941;DHT22;5009;50.656;7.188;2023-02-08T07:04:44;-2.30;99.90
9941;DHT22;5009;50.656;7.188;2023-02-08T07:07:14;-2.30;99.90
9941;DHT22;5009;50.656;7.188;2023-02-08T07:09:41;-2.30;99.90
9941;DHT22;5009;50.656;7.188;2023-02-08T07:12:06;-2.30;99.90
9941;DHT22;5009;50.656;7.188;2023-02-08T07:14:34;-2.20;99.90
9941;DHT22;5009;50.656;7.188;2023-02-08T07:17:01;-2.20;99.90
9941;DHT22;5009;50.656;7.188;2023-02-08T07:19:26;-2.20;99.90
9941;DHT22;5009;50.656;7.188;2023-02-08T07:21:53;-2.20;99.90
9941;DHT22;5009;50.656;7.188;2023-02-08T07:24:18;-2.10;99.90
9941;DHT22;5009;50.656;7.188;2023-02-08T07:26:44;-2.00;99.90
9941;DHT22;5009;50.656;7.188;2023-02-08T07:29:09;-1.90;99.90
9941;DHT22;5009;50.656;7.188;2023-02-08T07:31:35;-1.90;99.90
9941;DHT22;5009;50.656;7.188;2023-02-08T07:34:00;-1.80;99.90
9941;DHT22;5009;50.656;7.188;2023-02-08T07:36:26;-1.60;99.90
9941;DHT22;5009;50.656;7.188;2023-02-08T07:38:52;-1.50;99.90
9941;DHT22;5009;50.656;7.188;2023-02-08T07:41:17;-1.40;99.90
9941;DHT22;5009;50.656;7.188;2023-02-08T07:43:43;-1.30;99.90
9941;DHT22;5009;50.656;7.188;2023-02-08T07:46:20;-1.20;99.90
9941;DHT22;5009;50.656;7.188;2023-02-08T07:48:46;-1.10;99.90
9941;DHT22;5009;50.656;7.188;2023-02-08T07:51:14;-1.10;99.90
9941;DHT22;5009;50.656;7.188;2023-02-08T07:53:39;-1.00;99.90
9941;DHT22;5009;50.656;7.188;2023-02-08T07:56:05;-0.80;99.90
9941;DHT22;5009;50.656;7.188;2023-02-08T07:58:31;-0.60;99.90
9941;DHT22;5009;50.656;7.188;2023-02-08T08:00:57;-0.50;99.90
9941;DHT22;5009;50.656;7.188;2023-02-08T08:03:23;-0.30;99.90
9941;DHT22;5009;50.656;7.188;2023-02-08T08:05:49;-0.20;99.90
9941;DHT22;5009;50.656;7.188;2023-02-08T08:08:15;0.10;99.90
9941;DHT22;5009;50.656;7.188;2023-02-08T08:10:41;0.20;99.90
9941;DHT22;5009;50.656;7.188;2023-02-08T08:13:06;0.40;99.90
9941;DHT22;5009;50.656;7.188;2023-02-08T08:15:32;0.50;99.90
9941;DHT22;5009;50.656;7.188;2023-02-08T08:17:57;0.60;99.90
9941;DHT22;5009;50.656;7.188;2023-02-08T08:20:23;0.80;99.90
9941;DHT22;5009;50.656;7.188;2023-02-08T08:22:49;0.90;99.90
9941;DHT22;5009;50.656;7.188;2023-02-08T08:25:15;1.10;99.90
9941;DHT22;5009;50.656;7.188;2023-02-08T08:27:40;1.00;99.90
9941;DHT22;5009;50.656;7.188;2023-02-08T08:30:07;1.20;99.90
9941;DHT22;5009;50.656;7.188;2023-02-08T08:32:33;1.40;99.90
9941;DHT22;5009;50.656;7.188;2023-02-08T08:34:59;1.60;99.90
9941;DHT22;5009;50.656;7.188;2023-02-08T08:37:25;1.60;99.90
9941;DHT22;5009;50.656;7.188;2023-02-08T08:39:50;1.70;99.90
9941;DHT22;5009;50.656;7.188;2023-02-08T08:42:57;1.80;99.70
9941;DHT22;5009;50.656;7.188;2023-02-08T08:45:23;1.80;98.40
9941;DHT22;5009;50.656;7.188;2023-02-08T08:47:49;2.00;97.80
9941;DHT22;5009;50.656;7.188;2023-02-08T08:50:14;2.00;97.50
9941;DHT22;5009;50.656;7.188;2023-02-08T08:53:13;2.30;94.90
9941;DHT22;5009;50.656;7.188;2023-02-08T08:55:39;2.40;96.10
9941;DHT22;5009;50.656;7.188;2023-02-08T08:58:05;2.50;95.20
9941;DHT22;5009;50.656;7.188;2023-02-08T09:00:30;2.30;95.90
9941;DHT22;5009;50.656;7.188;2023-02-08T09:02:56;2.60;95.80
9941;DHT22;5009;50.656;7.188;2023-02-08T09:05:21;2.40;94.20
9941;DHT22;5009;50.656;7.188;2023-02-08T09:07:47;2.60;94.60
9941;DHT22;5009;50.656;7.188;2023-02-08T09:10:12;2.60;93.70
9941;DHT22;5009;50.656;7.188;2023-02-08T09:12:38;2.50;93.00
9941;DHT22;5009;50.656;7.188;2023-02-08T09:15:03;2.60;93.50
9941;DHT22;5009;50.656;7.188;2023-02-08T09:17:29;2.70;92.20
9941;DHT22;5009;50.656;7.188;2023-02-08T09:19:55;2.80;91.70
9941;DHT22;5009;50.656;7.188;2023-02-08T09:22:20;3.20;92.20
9941;DHT22;5009;50.656;7.188;2023-02-08T09:24:46;3.40;90.50
9941;DHT22;5009;50.656;7.188;2023-02-08T09:27:12;3.20;90.50
9941;DHT22;5009;50.656;7.188;2023-02-08T09:29:37;3.00;90.60
9941;DHT22;5009;50.656;7.188;2023-02-08T09:32:03;3.00;90.50
9941;DHT22;5009;50.656;7.188;2023-02-08T09:34:28;3.20;90.50
9941;DHT22;5009;50.656;7.188;2023-02-08T09:36:54;3.40;89.50
9941;DHT22;5009;50.656;7.188;2023-02-08T09:39:22;3.50;89.00
9941;DHT22;5009;50.656;7.188;2023-02-08T09:47:34;3.80;86.60
9941;DHT22;5009;50.656;7.188;2023-02-08T09:52:57;4.20;85.70
9941;DHT22;5009;50.656;7.188;2023-02-08T09:55:52;4.10;82.90
9941;DHT22;5009;50.656;7.188;2023-02-08T09:58:36;4.10;83.40
9941;DHT22;5009;50.656;7.188;2023-02-08T10:01:04;4.40;83.70
9941;DHT22;5009;50.656;7.188;2023-02-08T10:03:40;4.50;83.50
9941;DHT22;5009;50.656;7.188;2023-02-08T10:06:13;4.50;77.00
9941;DHT22;5009;50.656;7.188;2023-02-08T10:08:40;4.30;78.80
9941;DHT22;5009;50.656;7.188;2023-02-08T10:19:41;4.70;76.30
9941;DHT22;5009;50.656;7.188;2023-02-08T10:22:16;4.50;73.80
9941;DHT22;5009;50.656;7.188;2023-02-08T10:25:15;4.40;74.60
9941;DHT22;5009;50.656;7.188;2023-02-08T10:36:20;4.60;74.90
9941;DHT22;5009;50.656;7.188;2023-02-08T10:38:50;4.50;73.90
9941;DHT22;5009;50.656;7.188;2023-02-08T10:41:22;4.40;72.50
9941;DHT22;5009;50.656;7.188;2023-02-08T10:49:34;4.50;70.60
9941;DHT22;5009;50.656;7.188;2023-02-08T10:52:01;4.50;70.90
9941;DHT22;5009;50.656;7.188;2023-02-08T10:54:27;4.50;69.20
9941;DHT22;5009;50.656;7.188;2023-02-08T10:57:13;4.50;69.20
9941;DHT22;5009;50.656;7.188;2023-02-08T11:00:01;4.50;68.70
9941;DHT22;5009;50.656;7.188;2023-02-08T11:02:31;4.50;65.80
9941;DHT22;5009;50.656;7.188;2023-02-08T11:07:32;4.70;68.20
9941;DHT22;5009;50.656;7.188;2023-02-08T11:13:13;4.70;65.00
9941;DHT22;5009;50.656;7.188;2023-02-08T11:15:56;4.80;65.10
9941;DHT22;5009;50.656;7.188;2023-02-08T11:18:31;4.80;66.40
9941;DHT22;5009;50.656;7.188;2023-02-08T11:21:06;4.80;65.30
9941;DHT22;5009;50.656;7.188;2023-02-08T11:23:40;4.90;65.30
9941;DHT22;5009;50.656;7.188;2023-02-08T11:26:16;4.90;65.40
9941;DHT22;5009;50.656;7.188;2023-02-08T11:28:43;4.90;64.90
9941;DHT22;5009;50.656;7.188;2023-02-08T11:31:19;5.00;65.30
9941;DHT22;5009;50.656;7.188;2023-02-08T11:36:30;5.10;65.20
9941;DHT22;5009;50.656;7.188;2023-02-08T11:38:56;5.10;64.00
9941;DHT22;5009;50.656;7.188;2023-02-08T11:41:22;5.10;62.10
9941;DHT22;5009;50.656;7.188;2023-02-08T11:44:04;5.20;63.50
9941;DHT22;5009;50.656;7.188;2023-02-08T11:46:33;5.20;63.50
9941;DHT22;5009;50.656;7.188;2023-02-08T11:49:00;5.20;62.60
9941;DHT22;5009;50.656;7.188;2023-02-08T11:51:31;5.30;61.80
9941;DHT22;5009;50.656;7.188;2023-02-08T11:53:59;5.30;61.30
9941;DHT22;5009;50.656;7.188;2023-02-08T11:56:30;5.20;60.90
9941;DHT22;5009;50.656;7.188;2023-02-08T11:59:41;5.30;61.40
9941;DHT22;5009;50.656;7.188;2023-02-08T12:01:47;5.30;61.70
9941;DHT22;5009;50.656;7.188;2023-02-08T12:04:15;5.40;61.50
9941;DHT22;5009;50.656;7.188;2023-02-08T12:12:29;5.20;59.00
9941;DHT22;5009;50.656;7.188;2023-02-08T12:18:13;5.30;58.80
9941;DHT22;5009;50.656;7.188;2023-02-08T12:20:46;5.40;58.90
9941;DHT22;5009;50.656;7.188;2023-02-08T12:23:28;5.30;58.20
9941;DHT22;5009;50.656;7.188;2023-02-08T12:40:55;5.60;58.00
9941;DHT22;5009;50.656;7.188;2023-02-08T12:46:20;5.60;57.30
9941;DHT22;5009;50.656;7.188;2023-02-08T12:51:35;5.60;56.90
9941;DHT22;5009;50.656;7.188;2023-02-08T12:54:28;5.60;56.50
9941;DHT22;5009;50.656;7.188;2023-02-08T12:56:56;5.70;57.20
9941;DHT22;5009;50.656;7.188;2023-02-08T13:04:48;5.70;55.90
9941;DHT22;5009;50.656;7.188;2023-02-08T13:07:45;5.70;55.90
9941;DHT22;5009;50.656;7.188;2023-02-08T13:10:27;5.80;55.70
9941;DHT22;5009;50.656;7.188;2023-02-08T13:13:07;5.80;55.20
9941;DHT22;5009;50.656;7.188;2023-02-08T13:18:53;5.90;55.80
9941;DHT22;5009;50.656;7.188;2023-02-08T13:21:23;6.00;55.50
9941;DHT22;5009;50.656;7.188;2023-02-08T13:23:49;5.90;55.70
9941;DHT22;5009;50.656;7.188;2023-02-08T13:26:32;6.00;55.40
9941;DHT22;5009;50.656;7.188;2023-02-08T13:29:00;6.00;54.90
9941;DHT22;5009;50.656;7.188;2023-02-08T13:31:49;6.00;55.10
9941;DHT22;5009;50.656;7.188;2023-02-08T13:34:32;6.00;55.10
9941;DHT22;5009;50.656;7.188;2023-02-08T13:37:03;6.00;55.20
9941;DHT22;5009;50.656;7.188;2023-02-08T13:39:34;6.00;55.00
9941;DHT22;5009;50.656;7.188;2023-02-08T13:42:02;6.00;54.90
9941;DHT22;5009;50.656;7.188;2023-02-08T13:44:35;5.90;54.20
9941;DHT22;5009;50.656;7.188;2023-02-08T13:47:03;6.00;54.50
9941;DHT22;5009;50.656;7.188;2023-02-08T13:49:51;6.00;54.10
9941;DHT22;5009;50.656;7.188;2023-02-08T13:58:24;6.10;54.20
9941;DHT22;5009;50.656;7.188;2023-02-08T14:03:30;6.00;53.50
9941;DHT22;5009;50.656;7.188;2023-02-08T14:06:21;6.10;53.60
9941;DHT22;5009;50.656;7.188;2023-02-08T14:09:12;6.10;53.30
9941;DHT22;5009;50.656;7.188;2023-02-08T14:11:45;6.10;53.50
9941;DHT22;5009;50.656;7.188;2023-02-08T14:14:19;6.10;53.30
9941;DHT22;5009;50.656;7.188;2023-02-08T14:17:07;6.10;53.10
9941;DHT22;5009;50.656;7.188;2023-02-08T14:19:36;6.10;53.30
9941;DHT22;5009;50.656;7.188;2023-02-08T14:24:48;6.10;52.60
9941;DHT22;5009;50.656;7.188;2023-02-08T14:27:39;6.10;52.70
9941;DHT22;5009;50.656;7.188;2023-02-08T14:30:19;6.10;52.50
9941;DHT22;5009;50.656;7.188;2023-02-08T14:32:52;6.10;52.50
9941;DHT22;5009;50.656;7.188;2023-02-08T14:35:22;6.10;52.90
9941;DHT22;5009;50.656;7.188;2023-02-08T14:37:50;6.10;52.40
9941;DHT22;5009;50.656;7.188;2023-02-08T14:40:42;6.10;52.70
9941;DHT22;5009;50.656;7.188;2023-02-08T14:45:44;6.10;52.40
9941;DHT22;5009;50.656;7.188;2023-02-08T14:48:23;6.10;52.50
9941;DHT22;5009;50.656;7.188;2023-02-08T14:50:57;6.10;52.20
9941;DHT22;5009;50.656;7.188;2023-02-08T14:53:28;6.10;52.20
9941;DHT22;5009;50.656;7.188;2023-02-08T14:56:13;6.20;52.10
9941;DHT22;5009;50.656;7.188;2023-02-08T14:58:42;6.10;51.80
9941;DHT22;5009;50.656;7.188;2023-02-08T15:03:55;6.10;51.30
9941;DHT22;5009;50.656;7.188;2023-02-08T15:11:37;6.10;51.20
9941;DHT22;5009;50.656;7.188;2023-02-08T15:14:03;6.10;50.70
9941;DHT22;5009;50.656;7.188;2023-02-08T15:16:38;6.10;51.00
9941;DHT22;5009;50.656;7.188;2023-02-08T15:19:06;6.00;50.80
9941;DHT22;5009;50.656;7.188;2023-02-08T15:21:33;6.00;50.50
9941;DHT22;5009;50.656;7.188;2023-02-08T15:24:14;6.00;50.10
9941;DHT22;5009;50.656;7.188;2023-02-08T15:26:45;6.00;50.60
9941;DHT22;5009;50.656;7.188;2023-02-08T15:29:17;6.00;50.40
9941;DHT22;5009;50.656;7.188;2023-02-08T15:31:43;6.00;50.40
9941;DHT22;5009;50.656;7.188;2023-02-08T15:34:09;6.00;50.50
9941;DHT22;5009;50.656;7.188;2023-02-08T15:36:37;6.00;50.60
9941;DHT22;5009;50.656;7.188;2023-02-08T15:39:09;6.00;50.20
9941;DHT22;5009;50.656;7.188;2023-02-08T15:41:39;5.90;50.00
9941;DHT22;5009;50.656;7.188;2023-02-08T15:44:18;5.90;50.20
9941;DHT22;5009;50.656;7.188;2023-02-08T15:46:45;5.90;50.30
9941;DHT22;5009;50.656;7.188;2023-02-08T15:49:16;5.90;50.30
9941;DHT22;5009;50.656;7.188;2023-02-08T15:51:44;5.90;50.20
9941;DHT22;5009;50.656;7.188;2023-02-08T15:54:15;5.90;50.20
9941;DHT22;5009;50.656;7.188;2023-02-08T15:59:26;5.80;50.50
9941;DHT22;5009;50.656;7.188;2023-02-08T16:01:54;5.70;50.30
9941;DHT22;5009;50.656;7.188;2023-02-08T16:04:21;5.70;50.20
9941;DHT22;5009;50.656;7.188;2023-02-08T16:06:51;5.70;50.60
9941;DHT22;5009;50.656;7.188;2023-02-08T16:09:23;5.70;50.40
9941;DHT22;5009;50.656;7.188;2023-02-08T16:11:53;5.60;50.60
9941;DHT22;5009;50.656;7.188;2023-02-08T16:14:22;5.60;50.70
9941;DHT22;5009;50.656;7.188;2023-02-08T16:16:52;5.50;50.40
9941;DHT22;5009;50.656;7.188;2023-02-08T16:19:24;5.50;50.50
9941;DHT22;5009;50.656;7.188;2023-02-08T16:21:55;5.40;50.90
9941;DHT22;5009;50.656;7.188;2023-02-08T16:24:25;5.40;51.20
9941;DHT22;5009;50.656;7.188;2023-02-08T16:27:03;5.40;51.50
9941;DHT22;5009;50.656;7.188;2023-02-08T16:29:35;5.30;51.40
9941;DHT22;5009;50.656;7.188;2023-02-08T16:32:05;5.20;52.10
9941;DHT22;5009;50.656;7.188;2023-02-08T16:34:35;5.20;52.70
9941;DHT22;5009;50.656;7.188;2023-02-08T16:37:05;5.10;52.80
9941;DHT22;5009;50.656;7.188;2023-02-08T16:39:51;4.90;52.90
9941;DHT22;5009;50.656;7.188;2023-02-08T16:42:22;4.90;52.80
9941;DHT22;5009;50.656;7.188;2023-02-08T16:47:38;4.80;53.20
9941;DHT22;5009;50.656;7.188;2023-02-08T16:50:30;4.60;53.00
9941;DHT22;5009;50.656;7.188;2023-02-08T16:53:02;4.60;53.10
9941;DHT22;5009;50.656;7.188;2023-02-08T16:55:31;4.60;54.30
9941;DHT22;5009;50.656;7.188;2023-02-08T16:57:58;4.60;56.20
9941;DHT22;5009;50.656;7.188;2023-02-08T17:00:30;4.60;56.40
9941;DHT22;5009;50.656;7.188;2023-02-08T17:02:56;4.50;55.90
9941;DHT22;5009;50.656;7.188;2023-02-08T17:05:25;4.40;55.40
9941;DHT22;5009;50.656;7.188;2023-02-08T17:07:51;4.40;55.60
9941;DHT22;5009;50.656;7.188;2023-02-08T17:10:24;4.40;55.80
9941;DHT22;5009;50.656;7.188;2023-02-08T17:12:50;4.20;55.90
9941;DHT22;5009;50.656;7.188;2023-02-08T17:15:16;4.20;56.00
9941;DHT22;5009;50.656;7.188;2023-02-08T17:17:42;4.00;56.20
9941;DHT22;5009;50.656;7.188;2023-02-08T17:22:45;3.90;56.40
9941;DHT22;5009;50.656;7.188;2023-02-08T17:25:10;3.70;56.50
9941;DHT22;5009;50.656;7.188;2023-02-08T17:28:16;3.70;56.90
9941;DHT22;5009;50.656;7.188;2023-02-08T17:30:38;3.70;56.60
9941;DHT22;5009;50.656;7.188;2023-02-08T17:33:04;3.70;56.60
9941;DHT22;5009;50.656;7.188;2023-02-08T17:35:31;3.70;57.10
9941;DHT22;5009;50.656;7.188;2023-02-08T17:37:58;3.60;57.90
9941;DHT22;5009;50.656;7.188;2023-02-08T17:40:26;3.50;58.20
9941;DHT22;5009;50.656;7.188;2023-02-08T17:42:54;3.50;58.50
9941;DHT22;5009;50.656;7.188;2023-02-08T17:45:20;3.30;58.60
9941;DHT22;5009;50.656;7.188;2023-02-08T17:47:46;3.20;58.40
9941;DHT22;5009;50.656;7.188;2023-02-08T17:50:14;3.20;58.70
9941;DHT22;5009;50.656;7.188;2023-02-08T17:52:40;3.10;58.50
9941;DHT22;5009;50.656;7.188;2023-02-08T17:55:08;3.00;59.30
9941;DHT22;5009;50.656;7.188;2023-02-08T17:57:36;3.10;59.70
9941;DHT22;5009;50.656;7.188;2023-02-08T18:00:05;3.00;59.10
9941;DHT22;5009;50.656;7.188;2023-02-08T18:02:33;2.90;59.50
9941;DHT22;5009;50.656;7.188;2023-02-08T18:04:59;2.90;59.80
9941;DHT22;5009;50.656;7.188;2023-02-08T18:07:25;2.80;61.30
9941;DHT22;5009;50.656;7.188;2023-02-08T18:09:50;2.80;62.50
9941;DHT22;5009;50.656;7.188;2023-02-08T18:12:16;2.80;63.80
9941;DHT22;5009;50.656;7.188;2023-02-08T18:14:41;2.70;65.00
9941;DHT22;5009;50.656;7.188;2023-02-08T18:17:07;2.50;66.90
9941;DHT22;5009;50.656;7.188;2023-02-08T18:19:32;2.50;67.30
9941;DHT22;5009;50.656;7.188;2023-02-08T18:22:46;2.40;66.90
9941;DHT22;5009;50.656;7.188;2023-02-08T18:25:12;2.30;65.70
9941;DHT22;5009;50.656;7.188;2023-02-08T18:27:38;2.30;66.90
9941;DHT22;5009;50.656;7.188;2023-02-08T18:30:04;2.30;69.30
9941;DHT22;5009;50.656;7.188;2023-02-08T18:32:30;2.10;72.10
9941;DHT22;5009;50.656;7.188;2023-02-08T18:34:55;2.00;73.50
9941;DHT22;5009;50.656;7.188;2023-02-08T18:37:21;2.00;74.40
9941;DHT22;5009;50.656;7.188;2023-02-08T18:39:47;1.90;75.50
9941;DHT22;5009;50.656;7.188;2023-02-08T18:42:13;1.80;76.60
9941;DHT22;5009;50.656;7.188;2023-02-08T18:44:39;1.80;77.00
9941;DHT22;5009;50.656;7.188;2023-02-08T18:47:06;1.80;77.90
9941;DHT22;5009;50.656;7.188;2023-02-08T18:49:32;1.70;78.80
9941;DHT22;5009;50.656;7.188;2023-02-08T18:52:00;1.60;79.90
9941;DHT22;5009;50.656;7.188;2023-02-08T18:54:25;1.50;80.70
9941;DHT22;5009;50.656;7.188;2023-02-08T18:56:51;1.40;81.40
9941;DHT22;5009;50.656;7.188;2023-02-08T18:59:20;1.40;82.20
9941;DHT22;5009;50.656;7.188;2023-02-08T19:01:45;1.40;82.60
9941;DHT22;5009;50.656;7.188;2023-02-08T19:04:11;1.30;83.00
9941;DHT22;5009;50.656;7.188;2023-02-08T19:06:37;1.30;83.20
9941;DHT22;5009;50.656;7.188;2023-02-08T19:09:05;1.30;82.50
9941;DHT22;5009;50.656;7.188;2023-02-08T19:11:34;1.30;81.40
9941;DHT22;5009;50.656;7.188;2023-02-08T19:14:02;1.30;81.10
9941;DHT22;5009;50.656;7.188;2023-02-08T19:16:29;1.20;80.30
9941;DHT22;5009;50.656;7.188;2023-02-08T19:18:55;1.10;81.50
9941;DHT22;5009;50.656;7.188;2023-02-08T19:21:21;1.10;80.30
9941;DHT22;5009;50.656;7.188;2023-02-08T19:23:49;1.20;77.00
9941;DHT22;5009;50.656;7.188;2023-02-08T19:26:23;1.30;73.90
9941;DHT22;5009;50.656;7.188;2023-02-08T19:28:51;1.40;72.40
9941;DHT22;5009;50.656;7.188;2023-02-08T19:31:20;1.50;71.10
9941;DHT22;5009;50.656;7.188;2023-02-08T19:33:48;1.60;70.20
9941;DHT22;5009;50.656;7.188;2023-02-08T19:36:19;1.60;69.40
9941;DHT22;5009;50.656;7.188;2023-02-08T19:38:46;1.70;68.40
9941;DHT22;5009;50.656;7.188;2023-02-08T19:41:19;1.70;68.50
9941;DHT22;5009;50.656;7.188;2023-02-08T19:43:45;1.70;68.10
9941;DHT22;5009;50.656;7.188;2023-02-08T19:46:13;1.80;67.80
9941;DHT22;5009;50.656;7.188;2023-02-08T19:48:39;1.80;68.00
9941;DHT22;5009;50.656;7.188;2023-02-08T19:51:05;1.80;68.30
9941;DHT22;5009;50.656;7.188;2023-02-08T19:53:31;1.70;68.80
9941;DHT22;5009;50.656;7.188;2023-02-08T19:56:01;1.70;67.90
9941;DHT22;5009;50.656;7.188;2023-02-08T19:58:28;1.80;67.80
9941;DHT22;5009;50.656;7.188;2023-02-08T20:00:54;1.80;66.90
9941;DHT22;5009;50.656;7.188;2023-02-08T20:03:21;1.80;67.20
9941;DHT22;5009;50.656;7.188;2023-02-08T20:05:48;1.90;67.20
9941;DHT22;5009;50.656;7.188;2023-02-08T20:08:14;1.90;66.90
9941;DHT22;5009;50.656;7.188;2023-02-08T20:10:45;1.80;67.00
9941;DHT22;5009;50.656;7.188;2023-02-08T20:13:12;1.80;67.60
9941;DHT22;5009;50.656;7.188;2023-02-08T20:15:39;1.80;67.80
9941;DHT22;5009;50.656;7.188;2023-02-08T20:18:06;1.80;68.40
9941;DHT22;5009;50.656;7.188;2023-02-08T20:20:32;1.70;68.30
9941;DHT22;5009;50.656;7.188;2023-02-08T20:22:58;1.70;68.30
9941;DHT22;5009;50.656;7.188;2023-02-08T20:25:25;1.70;68.20
9941;DHT22;5009;50.656;7.188;2023-02-08T20:27:51;1.70;67.80
9941;DHT22;5009;50.656;7.188;2023-02-08T20:30:17;1.80;68.00
9941;DHT22;5009;50.656;7.188;2023-02-08T20:32:42;1.70;68.50
9941;DHT22;5009;50.656;7.188;2023-02-08T20:35:09;1.70;67.50
9941;DHT22;5009;50.656;7.188;2023-02-08T20:37:35;1.70;67.60
9941;DHT22;5009;50.656;7.188;2023-02-08T20:40:01;1.70;67.30
9941;DHT22;5009;50.656;7.188;2023-02-08T20:42:26;1.70;67.60
9941;DHT22;5009;50.656;7.188;2023-02-08T20:44:52;1.80;67.90
9941;DHT22;5009;50.656;7.188;2023-02-08T20:47:18;1.80;67.70
9941;DHT22;5009;50.656;7.188;2023-02-08T20:49:46;1.70;67.70
9941;DHT22;5009;50.656;7.188;2023-02-08T20:52:12;1.70;67.90
9941;DHT22;5009;50.656;7.188;2023-02-08T20:54:37;1.70;67.80
9941;DHT22;5009;50.656;7.188;2023-02-08T20:57:03;1.70;68.10
9941;DHT22;5009;50.656;7.188;2023-02-08T20:59:29;1.70;68.00
9941;DHT22;5009;50.656;7.188;2023-02-08T21:01:55;1.70;68.30
9941;DHT22;5009;50.656;7.188;2023-02-08T21:04:21;1.70;68.30
9941;DHT22;5009;50.656;7.188;2023-02-08T21:06:52;1.60;68.40
9941;DHT22;5009;50.656;7.188;2023-02-08T21:09:18;1.60;68.10
9941;DHT22;5009;50.656;7.188;2023-02-08T21:11:44;1.60;68.20
9941;DHT22;5009;50.656;7.188;2023-02-08T21:14:16;1.60;68.40
9941;DHT22;5009;50.656;7.188;2023-02-08T21:16:51;1.60;68.30
9941;DHT22;5009;50.656;7.188;2023-02-08T21:19:18;1.60;68.50
9941;DHT22;5009;50.656;7.188;2023-02-08T21:21:44;1.60;68.00
9941;DHT22;5009;50.656;7.188;2023-02-08T21:24:13;1.60;68.00
9941;DHT22;5009;50.656;7.188;2023-02-08T21:26:40;1.50;68.10
9941;DHT22;5009;50.656;7.188;2023-02-08T21:29:06;1.50;67.80
9941;DHT22;5009;50.656;7.188;2023-02-08T21:31:33;1.60;68.20
9941;DHT22;5009;50.656;7.188;2023-02-08T21:34:01;1.60;68.40
9941;DHT22;5009;50.656;7.188;2023-02-08T21:36:28;1.50;68.30
9941;DHT22;5009;50.656;7.188;2023-02-08T21:38:56;1.60;68.50
9941;DHT22;5009;50.656;7.188;2023-02-08T21:41:31;1.60;68.70
9941;DHT22;5009;50.656;7.188;2023-02-08T21:43:59;1.50;68.30
9941;DHT22;5009;50.656;7.188;2023-02-08T21:46:28;1.50;68.30
9941;DHT22;5009;50.656;7.188;2023-02-08T21:48:54;1.50;68.60
9941;DHT22;5009;50.656;7.188;2023-02-08T21:51:39;1.40;68.30
9941;DHT22;5009;50.656;7.188;2023-02-08T21:54:25;1.50;68.70
9941;DHT22;5009;50.656;7.188;2023-02-08T21:56:54;1.40;68.50
9941;DHT22;5009;50.656;7.188;2023-02-08T21:59:20;1.40;68.40
